createdAt,value
2018-07-10T00:02:17.608Z,99496.14
2018-07-10T00:06:02.062Z,99489.47
2018-07-10T00:10:48.788Z,99491.57
2018-07-10T00:13:18.710Z,99486.00
2018-07-10T00:15:48.578Z,99478.17
2018-07-10T00:18:18.477Z,99479.19
2018-07-10T00:20:48.471Z,99480.27
2018-07-10T00:23:18.454Z,99483.73
2018-07-10T00:25:48.361Z,99483.37
2018-07-10T00:28:18.228Z,99480.05
2018-07-10T00:30:48.251Z,99485.92
2018-07-10T00:33:18.291Z,99484.80
2018-07-10T00:35:48.156Z,99477.75
2018-07-10T00:38:28.661Z,99480.02
2018-07-10T00:40:58.687Z,99481.94
2018-07-10T00:43:28.653Z,99478.53
2018-07-10T00:45:58.591Z,99478.67
2018-07-10T00:48:28.508Z,99480.05
2018-07-10T00:50:58.652Z,99474.55
2018-07-10T00:53:28.656Z,99473.27
2018-07-10T00:55:58.524Z,99471.02
2018-07-10T00:58:28.519Z,99470.98
2018-07-10T01:00:58.571Z,99465.48
2018-07-10T01:03:28.492Z,99474.91
2018-07-10T01:05:58.449Z,99466.35
2018-07-10T01:08:28.375Z,99461.20
2018-07-10T01:11:07.497Z,99461.13
2018-07-10T01:13:37.715Z,99469.10
2018-07-10T01:16:07.769Z,99471.34
2018-07-10T01:18:45.885Z,99472.33
2018-07-10T01:21:18.330Z,99469.75
2018-07-10T01:23:55.787Z,99468.02
2018-07-10T01:26:26.488Z,99472.14
2018-07-10T01:29:01.208Z,99471.00
2018-07-10T01:31:31.305Z,99469.81
2018-07-10T01:34:01.296Z,99464.67
2018-07-10T01:36:31.351Z,99463.56
2018-07-10T01:39:01.239Z,99462.70
2018-07-10T01:41:31.276Z,99468.66
2018-07-10T01:44:01.255Z,99463.36
2018-07-10T01:46:31.496Z,99465.84
2018-07-10T01:49:01.580Z,99468.25
2018-07-10T01:51:32.617Z,99458.37
2018-07-10T01:54:02.608Z,99459.37
2018-07-10T01:56:32.878Z,99460.19
2018-07-10T01:59:03.065Z,99460.55
2018-07-10T02:01:32.956Z,99461.44
2018-07-10T02:04:02.980Z,99466.37
2018-07-10T02:06:32.936Z,99460.92
2018-07-10T02:09:02.968Z,99467.29
2018-07-10T02:11:33.048Z,99461.92
2018-07-10T02:14:03.066Z,99465.45
2018-07-10T02:16:33.020Z,99465.54
2018-07-10T02:19:03.004Z,99474.81
2018-07-10T02:21:33.019Z,99472.06
2018-07-10T02:24:03.019Z,99469.80
2018-07-10T02:26:33.032Z,99467.08
2018-07-10T02:29:03.092Z,99468.50
2018-07-10T02:31:33.048Z,99459.53
2018-07-10T02:34:03.024Z,99470.29
2018-07-10T02:36:32.915Z,99468.70
2018-07-10T02:39:03.013Z,99465.14
2018-07-10T02:41:33.009Z,99467.94
2018-07-10T02:44:04.176Z,99467.23
2018-07-10T02:46:38.285Z,99469.64
2018-07-10T02:49:21.008Z,99465.45
2018-07-10T02:51:59.067Z,99469.31
2018-07-10T02:54:30.868Z,99457.19
2018-07-10T02:57:00.917Z,99460.37
2018-07-10T02:59:36.756Z,99460.04
2018-07-10T03:02:08.925Z,99463.06
2018-07-10T03:04:41.068Z,99457.41
2018-07-10T03:07:14.284Z,99461.13
2018-07-10T03:09:45.528Z,99455.19
2018-07-10T03:12:16.467Z,99462.88
2018-07-10T03:14:46.553Z,99460.91
2018-07-10T03:17:21.332Z,99462.98
2018-07-10T03:19:52.331Z,99461.20
2018-07-10T03:22:22.284Z,99463.36
2018-07-10T03:24:52.324Z,99460.85
2018-07-10T03:27:22.188Z,99460.10
2018-07-10T03:29:52.564Z,99457.08
2018-07-10T03:32:22.576Z,99459.83
2018-07-10T03:34:52.536Z,99460.28
2018-07-10T03:37:22.529Z,99457.45
2018-07-10T03:39:52.507Z,99454.65
2018-07-10T03:42:22.472Z,99456.78
2018-07-10T03:44:52.552Z,99456.40
2018-07-10T03:47:22.552Z,99452.78
2018-07-10T03:49:52.914Z,99458.36
2018-07-10T03:52:28.010Z,99459.83
2018-07-10T03:55:00.615Z,99462.52
2018-07-10T03:57:30.645Z,99463.03
2018-07-10T04:00:06.183Z,99462.83
2018-07-10T04:02:37.052Z,99456.66
2018-07-10T04:05:06.972Z,99461.53
2018-07-10T04:07:37.046Z,99461.03
2018-07-10T04:10:07.553Z,99459.64
2018-07-10T04:12:38.312Z,99459.64
2018-07-10T04:15:08.292Z,99459.95
2018-07-10T04:17:43.220Z,99456.35
2018-07-10T04:20:16.748Z,99462.14
2018-07-10T04:22:52.513Z,99460.97
2018-07-10T04:25:26.580Z,99461.14
2018-07-10T04:28:02.460Z,99460.98
2018-07-10T04:30:57.165Z,99460.36
2018-07-10T04:33:27.211Z,99463.03
2018-07-10T04:35:57.284Z,99462.65
2018-07-10T04:38:28.856Z,99461.27
2018-07-10T04:41:05.235Z,99465.63
2018-07-10T04:43:35.236Z,99471.69
2018-07-10T04:46:05.300Z,99471.16
2018-07-10T04:48:39.905Z,99476.30
2018-07-10T04:51:18.988Z,99473.81
2018-07-10T04:53:56.552Z,99471.04
2018-07-10T04:56:26.989Z,99473.66
2018-07-10T04:58:57.260Z,99475.34
2018-07-10T05:01:34.572Z,99473.81
2018-07-10T05:04:05.455Z,99478.75
2018-07-10T05:06:36.132Z,99477.11
2018-07-10T05:09:06.738Z,99481.91
2018-07-10T05:11:40.245Z,99483.02
2018-07-10T05:14:10.428Z,99492.27
2018-07-10T05:16:40.442Z,99486.80
2018-07-10T05:19:10.763Z,99488.66
2018-07-10T05:21:41.597Z,99495.97
2018-07-10T05:24:11.978Z,99496.91
2018-07-10T05:26:42.625Z,99495.47
2018-07-10T05:29:12.676Z,99503.56
2018-07-10T05:31:43.000Z,99501.88
2018-07-10T05:34:13.212Z,99492.80
2018-07-10T05:36:43.496Z,99494.69
2018-07-10T05:39:13.681Z,99500.55
2018-07-10T05:41:46.204Z,99489.55
2018-07-10T05:44:19.832Z,99496.27
2018-07-10T05:46:49.916Z,99484.63
2018-07-10T05:49:20.051Z,99483.75
2018-07-10T05:51:52.443Z,99486.86
2018-07-10T05:54:23.740Z,99489.18
2018-07-10T05:56:53.808Z,99486.28
2018-07-10T05:59:23.802Z,99483.71
2018-07-10T06:01:53.892Z,99490.20
2018-07-10T06:04:24.167Z,99477.33
2018-07-10T06:06:54.304Z,99482.41
2018-07-10T06:09:24.380Z,99494.66
2018-07-10T06:11:54.317Z,99489.70
2018-07-10T06:14:24.530Z,99487.81
2018-07-10T06:16:54.755Z,99481.41
2018-07-10T06:19:24.777Z,99482.98
2018-07-10T06:21:54.841Z,99483.80
2018-07-10T06:24:26.967Z,99479.60
2018-07-10T06:27:03.156Z,99479.69
2018-07-10T06:30:37.944Z,99487.15
2018-07-10T06:33:19.959Z,99487.20
2018-07-10T06:35:55.240Z,99480.29
2018-07-10T06:38:25.275Z,99486.09
2018-07-10T06:40:55.424Z,99350.13
2018-07-10T06:43:34.434Z,99489.98
2018-07-10T06:46:04.527Z,99491.65
2018-07-10T06:48:37.789Z,99493.03
2018-07-10T06:51:14.804Z,99490.43
2018-07-10T06:53:46.069Z,99494.83
2018-07-10T06:56:25.864Z,99491.61
2018-07-10T06:58:56.141Z,99499.38
2018-07-10T07:01:26.244Z,99480.68
2018-07-10T07:04:02.114Z,99494.27
2018-07-10T07:06:32.560Z,99488.28
2018-07-10T07:09:02.526Z,99484.80
2018-07-10T07:11:32.560Z,99404.23
2018-07-10T07:14:02.540Z,99485.72
2018-07-10T07:16:32.484Z,99476.33
2018-07-10T07:19:02.473Z,99476.14
2018-07-10T07:21:32.529Z,99479.94
2018-07-10T07:24:02.581Z,99480.22
2018-07-10T07:26:32.780Z,99481.83
2018-07-10T07:29:03.088Z,99477.66
2018-07-10T07:31:33.347Z,99477.88
2018-07-10T07:34:03.476Z,99479.39
2018-07-10T07:36:33.582Z,99469.06
2018-07-10T07:39:04.946Z,99468.16
2018-07-10T07:41:34.868Z,99470.93
2018-07-10T07:44:05.116Z,99469.19
2018-07-10T07:46:35.151Z,99476.02
2018-07-10T07:49:05.192Z,99470.13
2018-07-10T07:51:35.303Z,99465.83
2018-07-10T07:54:06.028Z,99476.02
2018-07-10T07:56:36.732Z,99477.40
2018-07-10T07:59:07.014Z,99475.91
2018-07-10T08:01:37.000Z,99473.09
2018-07-10T08:04:07.082Z,99474.86
2018-07-10T08:06:37.231Z,99484.02
2018-07-10T08:09:07.780Z,99481.69
2018-07-10T08:11:37.832Z,99472.75
2018-07-10T08:14:07.985Z,99469.29
2018-07-10T08:16:38.112Z,99471.62
2018-07-10T08:19:08.106Z,99469.76
2018-07-10T08:21:39.645Z,99477.39
2018-07-10T08:24:09.776Z,99482.94
2018-07-10T08:26:39.952Z,99475.27
2018-07-10T08:29:10.224Z,99475.86
2018-07-10T08:31:40.987Z,99479.72
2018-07-10T08:34:10.969Z,99477.73
2018-07-10T08:36:41.881Z,99476.55
2018-07-10T08:39:12.169Z,99467.44
2018-07-10T08:41:46.947Z,99484.20
2018-07-10T08:44:20.417Z,99468.85
2018-07-10T08:46:58.053Z,99464.27
2018-07-10T08:49:32.692Z,99467.61
2018-07-10T08:52:02.780Z,99462.03
2018-07-10T08:54:32.970Z,99461.25
2018-07-10T08:57:03.945Z,99465.42
2018-07-10T08:59:34.789Z,99448.53
2018-07-10T09:02:04.904Z,99454.95
2018-07-10T09:04:35.302Z,99454.60
2018-07-10T09:07:05.955Z,99455.09
2018-07-10T09:09:36.065Z,99454.73
2018-07-10T09:12:06.080Z,99451.95
2018-07-10T09:14:36.020Z,99443.58
2018-07-10T09:17:06.025Z,99451.23
2018-07-10T09:19:36.164Z,99443.89
2018-07-10T09:22:11.613Z,99443.34
2018-07-10T09:24:48.094Z,99440.23
2018-07-10T09:27:21.472Z,99439.76
2018-07-10T09:29:51.720Z,99440.52
2018-07-10T09:32:27.579Z,99446.08
2018-07-10T09:34:58.852Z,99436.62
2018-07-10T09:37:36.274Z,99433.56
2018-07-10T09:40:11.970Z,99439.70
2018-07-10T09:42:47.268Z,99438.86
2018-07-10T09:45:17.430Z,99433.98
2018-07-10T09:47:47.564Z,99438.58
2018-07-10T09:50:17.744Z,99436.50
2018-07-10T09:52:49.038Z,99439.08
2018-07-10T09:55:19.194Z,99433.62
2018-07-10T09:57:49.408Z,99439.27
2018-07-10T10:00:24.900Z,99427.47
2018-07-10T10:02:56.399Z,99429.07
2018-07-10T10:05:26.952Z,99424.82
2018-07-10T10:07:56.992Z,99424.41
2018-07-10T10:10:27.240Z,99415.43
2018-07-10T10:12:57.396Z,99422.19
2018-07-10T10:15:31.881Z,99420.50
2018-07-10T10:18:04.039Z,99355.98
2018-07-10T10:20:34.965Z,99417.34
2018-07-10T10:23:05.385Z,99417.13
2018-07-10T10:25:38.482Z,99412.27
2018-07-10T10:28:09.799Z,99407.07
2018-07-10T10:30:40.688Z,99404.59
2018-07-10T10:33:11.088Z,99402.67
2018-07-10T10:35:41.281Z,99399.29
2018-07-10T10:38:11.484Z,99398.72
2018-07-10T10:40:41.791Z,99396.94
2018-07-10T10:43:13.080Z,99399.22
2018-07-10T10:45:44.521Z,99395.24
2018-07-10T10:48:16.040Z,99393.84
2018-07-10T10:50:52.332Z,99388.86
2018-07-10T10:53:23.440Z,99391.25
2018-07-10T10:55:53.519Z,99395.42
2018-07-10T10:58:23.536Z,99393.77
2018-07-10T11:00:53.851Z,99391.55
2018-07-10T11:03:24.068Z,99385.98
2018-07-10T11:05:54.138Z,99389.48
2018-07-10T11:08:24.320Z,99383.29
2018-07-10T11:10:54.392Z,99376.08
2018-07-10T11:13:26.742Z,99371.69
2018-07-10T11:15:56.885Z,99374.64
2018-07-10T11:18:44.209Z,99374.58
2018-07-10T11:22:23.324Z,99374.48
2018-07-10T11:25:04.000Z,99368.83
2018-07-10T11:27:42.919Z,99359.15
2018-07-10T11:30:12.988Z,99353.27
2018-07-10T11:32:43.125Z,99352.50
2018-07-10T11:35:13.120Z,99358.78
2018-07-10T11:37:43.244Z,99355.47
2018-07-10T11:40:14.209Z,99356.66
2018-07-10T11:42:44.652Z,99279.95
2018-07-10T11:45:14.673Z,99355.58
2018-07-10T11:47:44.800Z,99346.23
2018-07-10T11:50:14.860Z,99345.75
2018-07-10T11:52:44.952Z,99341.39
2018-07-10T11:55:15.041Z,99344.89
2018-07-10T11:57:45.092Z,99342.00
2018-07-10T12:00:15.168Z,99255.78
2018-07-10T12:02:48.352Z,99337.73
2018-07-10T12:05:19.611Z,99333.50
2018-07-10T12:07:56.936Z,99334.39
2018-07-10T12:10:31.595Z,99331.46
2018-07-10T12:13:01.540Z,99331.72
2018-07-10T12:15:31.765Z,99325.05
2018-07-10T12:18:02.190Z,99322.68
2018-07-10T12:20:41.476Z,99327.67
2018-07-10T12:23:12.672Z,99326.98
2018-07-10T12:25:44.106Z,99325.30
2018-07-10T12:28:15.378Z,99321.52
2018-07-10T12:30:45.381Z,99324.08
2018-07-10T12:33:15.422Z,99325.30
2018-07-10T12:35:45.398Z,99320.39
2018-07-10T12:38:15.382Z,99321.53
2018-07-10T12:40:45.473Z,99316.06
2018-07-10T12:43:15.584Z,99315.50
2018-07-10T12:45:45.605Z,99315.77
2018-07-10T12:48:15.648Z,99298.30
2018-07-10T12:50:45.837Z,99302.19
2018-07-10T12:53:15.884Z,99304.11
2018-07-10T12:55:46.178Z,99306.87
2018-07-10T12:58:17.296Z,99203.10
2018-07-10T13:00:47.336Z,99308.83
2018-07-10T13:03:19.816Z,99307.23
2018-07-10T13:05:54.807Z,99302.27
2018-07-10T13:08:25.406Z,99301.63
2018-07-10T13:10:55.539Z,99304.09
2018-07-10T13:13:25.636Z,99304.05
2018-07-10T13:15:55.816Z,99302.15
2018-07-10T13:18:28.628Z,99303.97
2018-07-10T13:20:58.772Z,99304.00
2018-07-10T13:23:29.040Z,99296.92
2018-07-10T13:25:59.180Z,99293.68
2018-07-10T13:28:29.221Z,99295.52
2018-07-10T13:30:59.281Z,99299.84
2018-07-10T13:33:29.445Z,99301.67
2018-07-10T13:35:59.504Z,99302.92
2018-07-10T13:38:29.602Z,99300.27
2018-07-10T13:41:01.562Z,99298.20
2018-07-10T13:43:31.657Z,99298.75
2018-07-10T13:46:01.829Z,99293.11
2018-07-10T13:48:32.105Z,99299.44
2018-07-10T13:51:02.093Z,99297.88
2018-07-10T13:53:32.167Z,99290.86
2018-07-10T13:56:02.297Z,99296.17
2018-07-10T13:58:33.017Z,99298.87
2018-07-10T14:01:07.784Z,99298.42
2018-07-10T14:03:38.138Z,99302.88
2018-07-10T14:06:08.228Z,99298.61
2018-07-10T14:08:38.240Z,99297.66
2018-07-10T14:11:08.270Z,99294.51
2018-07-10T14:13:38.390Z,99298.13
2018-07-10T14:16:08.439Z,99288.52
2018-07-10T14:18:38.498Z,99284.87
2018-07-10T14:21:09.504Z,99296.04
2018-07-10T14:23:39.538Z,99293.84
2018-07-10T14:26:09.577Z,99298.64
2018-07-10T14:28:40.545Z,99118.96
2018-07-10T14:31:10.588Z,99284.98
2018-07-10T14:33:40.593Z,99287.89
2018-07-10T14:36:10.688Z,99295.31
2018-07-10T14:38:42.144Z,99286.00
2018-07-10T14:41:12.638Z,99292.94
2018-07-10T14:43:44.560Z,99210.14
2018-07-10T14:46:18.508Z,99289.61
2018-07-10T14:48:55.663Z,99289.69
2018-07-10T14:51:32.058Z,99293.02
2018-07-10T14:54:02.069Z,99262.70
2018-07-10T14:56:32.116Z,99289.94
2018-07-10T14:59:02.280Z,99285.03
2018-07-10T15:01:32.280Z,99289.13
2018-07-10T15:04:02.169Z,99292.87
2018-07-10T15:06:32.120Z,99291.16
2018-07-10T15:09:02.230Z,99282.45
2018-07-10T15:11:32.145Z,99290.11
2018-07-10T15:14:05.819Z,99285.66
2018-07-10T15:16:40.665Z,99280.92
2018-07-10T15:19:10.629Z,99281.12
2018-07-10T15:21:40.640Z,99277.34
2018-07-10T15:24:10.636Z,99279.10
2018-07-10T15:26:40.656Z,99276.43
2018-07-10T15:29:10.749Z,99278.03
2018-07-10T15:31:40.640Z,99282.14
2018-07-10T15:34:10.668Z,99275.00
2018-07-10T15:36:40.536Z,99278.70
2018-07-10T15:39:10.563Z,99280.88
2018-07-10T15:41:40.554Z,99280.94
2018-07-10T15:44:10.488Z,99284.78
2018-07-10T15:46:40.477Z,99291.70
2018-07-10T15:49:10.484Z,99289.65
2018-07-10T15:51:40.389Z,99290.75
2018-07-10T15:54:10.313Z,99292.05
2018-07-10T15:56:40.220Z,99304.26
2018-07-10T15:59:10.191Z,99302.34
2018-07-10T16:01:40.192Z,99300.95
2018-07-10T16:04:10.240Z,99220.85
2018-07-10T16:06:40.279Z,99303.80
2018-07-10T16:09:25.689Z,99305.36
2018-07-10T16:12:00.279Z,99297.97
2018-07-10T16:14:30.502Z,99309.33
2018-07-10T16:17:00.872Z,99311.52
2018-07-10T16:19:39.663Z,99309.39
2018-07-10T16:22:25.106Z,99293.85
2018-07-10T16:24:58.604Z,99310.77
2018-07-10T16:27:36.308Z,99309.09
2018-07-10T16:30:06.605Z,99301.39
2018-07-10T16:32:38.988Z,99309.45
2018-07-10T16:35:09.372Z,99316.50
2018-07-10T16:37:39.370Z,99320.59
2018-07-10T16:40:09.638Z,99322.29
2018-07-10T16:42:44.700Z,99324.72
2018-07-10T16:45:21.193Z,99329.97
2018-07-10T16:47:59.540Z,99324.45
2018-07-10T16:50:34.928Z,99326.34
2018-07-10T16:53:04.976Z,99335.53
2018-07-10T16:55:34.915Z,99335.48
2018-07-10T16:58:04.840Z,99338.27
2018-07-10T17:00:34.900Z,99347.95
2018-07-10T17:03:04.929Z,99344.27
2018-07-10T17:05:34.918Z,99354.58
2018-07-10T17:08:04.824Z,99351.66
2018-07-10T17:10:34.809Z,99344.84
2018-07-10T17:13:04.820Z,99340.22
2018-07-10T17:15:34.863Z,99364.48
2018-07-10T17:18:05.032Z,99367.29
2018-07-10T17:20:35.132Z,99372.38
2018-07-10T17:23:05.176Z,99367.77
2018-07-10T17:25:35.164Z,99378.86
2018-07-10T17:28:05.256Z,99382.77
2018-07-10T17:30:35.225Z,99389.06
2018-07-10T17:33:05.227Z,99391.98
2018-07-10T17:35:35.156Z,99402.86
2018-07-10T17:38:05.204Z,99403.83
2018-07-10T17:40:35.320Z,99407.09
2018-07-10T17:43:05.393Z,99411.69
2018-07-10T17:45:35.353Z,99411.34
2018-07-10T17:48:05.445Z,99417.36
2018-07-10T17:50:35.523Z,99418.61
2018-07-10T17:53:05.523Z,99416.88
2018-07-10T17:55:36.460Z,99422.85
2018-07-10T17:58:06.872Z,99418.00
2018-07-10T18:00:36.960Z,99422.97
2018-07-10T18:03:06.884Z,99427.34
2018-07-10T18:05:36.836Z,99432.59
2018-07-10T18:08:06.898Z,99433.25
2018-07-10T18:10:36.917Z,99438.05
2018-07-10T18:13:07.060Z,99438.16
2018-07-10T18:15:37.130Z,99439.07
2018-07-10T18:18:07.092Z,99442.95
2018-07-10T18:20:37.078Z,99451.09
2018-07-10T18:23:07.184Z,99451.09
2018-07-10T18:25:37.547Z,99455.35
2018-07-10T18:28:07.691Z,99456.03
2018-07-10T18:30:37.572Z,99459.72
2018-07-10T18:33:07.635Z,99463.77
2018-07-10T18:35:37.645Z,99470.39
2018-07-10T18:38:07.636Z,99471.45
2018-07-10T18:40:37.728Z,99465.78
2018-07-10T18:43:07.748Z,99474.94
2018-07-10T18:45:37.963Z,99479.19
2018-07-10T18:48:08.052Z,99485.89
2018-07-10T18:50:38.108Z,99485.41
2018-07-10T18:53:08.084Z,99486.38
2018-07-10T18:55:38.410Z,99490.31
2018-07-10T18:59:16.086Z,99488.13
2018-07-10T19:02:03.124Z,99494.78
2018-07-10T19:05:06.824Z,99500.22
2018-07-10T19:07:39.669Z,99502.51
2018-07-10T19:10:09.701Z,99506.59
2018-07-10T19:12:39.880Z,99510.75
2018-07-10T19:15:10.058Z,99513.94
2018-07-10T19:17:40.085Z,99513.80
2018-07-10T19:20:11.526Z,99513.47
2018-07-10T19:22:57.743Z,99514.95
2018-07-10T19:25:27.807Z,99518.73
2018-07-10T19:27:59.768Z,99514.51
2018-07-10T19:30:33.328Z,99378.88
2018-07-10T19:33:04.388Z,99511.65
2018-07-10T19:35:34.417Z,99512.25
2018-07-10T19:38:04.395Z,99527.52
2018-07-10T19:40:34.452Z,99520.37
2018-07-10T19:43:04.546Z,99525.50
2018-07-10T19:45:34.452Z,99526.62
2018-07-10T19:48:04.512Z,99528.48
2018-07-10T19:50:39.544Z,99528.48
2018-07-10T19:53:09.601Z,99530.04
2018-07-10T19:55:43.721Z,99525.50
2018-07-10T19:58:34.475Z,99527.78
2018-07-10T20:01:25.243Z,99526.81
2018-07-10T20:04:03.103Z,99529.74
2018-07-10T20:06:44.201Z,99532.97
2018-07-10T20:09:18.873Z,99539.88
2018-07-10T20:11:56.534Z,99540.20
2018-07-10T20:14:26.647Z,99540.84
2018-07-10T20:17:03.708Z,99539.05
2018-07-10T20:19:47.848Z,99535.97
2018-07-10T20:22:27.624Z,99534.02
2018-07-10T20:25:06.698Z,99538.56
2018-07-10T20:27:45.416Z,99537.58
2018-07-10T20:31:23.665Z,99537.50
2018-07-10T20:34:33.912Z,99537.67
2018-07-10T20:37:03.974Z,99536.43
2018-07-10T20:39:35.822Z,99536.86
2018-07-10T20:42:06.167Z,99542.94
2018-07-10T20:44:45.373Z,99540.98
2018-07-10T20:47:15.388Z,99549.04
2018-07-10T20:49:55.671Z,99544.63
2018-07-10T20:54:36.794Z,99542.27
2018-07-10T20:57:22.082Z,99533.17
2018-07-10T20:59:57.414Z,99532.18
2018-07-10T21:03:05.736Z,99527.02
2018-07-10T21:05:39.445Z,99527.41
2018-07-10T21:09:17.908Z,99523.00
2018-07-10T21:11:55.994Z,99516.76
2018-07-10T21:14:35.260Z,99521.22
2018-07-10T21:17:09.337Z,99519.73
2018-07-10T21:21:54.212Z,99517.30
2018-07-10T21:24:36.177Z,99529.98
2018-07-10T21:27:07.348Z,99529.59
2018-07-10T21:29:59.216Z,99531.69
2018-07-10T21:32:48.973Z,99531.87
2018-07-10T21:35:21.779Z,99527.05
2018-07-10T21:40:08.515Z,99529.73
2018-07-10T21:43:18.008Z,99531.91
2018-07-10T21:48:24.544Z,99530.28
2018-07-10T21:50:54.731Z,99539.03
2018-07-10T21:53:24.888Z,99546.02
2018-07-10T21:55:54.808Z,99554.00
2018-07-10T21:58:24.813Z,99554.34
2018-07-10T22:02:01.296Z,99550.52
2018-07-10T22:04:32.531Z,99548.17
2018-07-10T22:07:04.715Z,99550.55
2018-07-10T22:09:36.332Z,99550.70
2018-07-10T22:12:10.823Z,99542.59
2018-07-10T22:14:41.600Z,99535.69
2018-07-10T22:17:16.798Z,99535.77
2018-07-10T22:19:48.595Z,99538.45
2018-07-10T22:22:20.456Z,99538.64
2018-07-10T22:24:51.659Z,99543.36
2018-07-10T22:27:22.243Z,99537.88
2018-07-10T22:30:02.974Z,99544.08
2018-07-10T22:32:41.240Z,99535.69
2018-07-10T22:35:11.279Z,99535.61
2018-07-10T22:37:41.255Z,99540.13
2018-07-10T22:40:11.269Z,99541.39
2018-07-10T22:42:41.132Z,99535.72
2018-07-10T22:45:11.228Z,99531.16
2018-07-10T22:47:42.399Z,99521.22
2018-07-10T22:50:17.956Z,99526.16
2018-07-10T22:53:02.517Z,99519.72
2018-07-10T22:55:33.589Z,99526.52
2018-07-10T22:58:06.322Z,99526.91
2018-07-10T23:00:37.462Z,99539.93
2018-07-10T23:03:16.271Z,99536.87
2018-07-10T23:05:47.158Z,99533.98
2018-07-10T23:08:18.668Z,99534.22
2018-07-10T23:10:48.671Z,99532.68
2018-07-10T23:13:18.939Z,99536.34
2018-07-10T23:15:49.362Z,99532.55
2018-07-10T23:18:19.503Z,99529.08
2018-07-10T23:20:49.420Z,99531.97
2018-07-10T23:23:19.996Z,99537.98
2018-07-10T23:25:49.774Z,99534.36
2018-07-10T23:28:19.475Z,99533.22
2018-07-10T23:30:49.192Z,99530.22
2018-07-10T23:33:19.509Z,99535.59
2018-07-10T23:35:56.299Z,99540.11
2018-07-10T23:38:34.678Z,99537.66
2018-07-10T23:41:04.402Z,99539.47
2018-07-10T23:43:42.476Z,99535.46
2018-07-10T23:46:20.674Z,99541.77
2018-07-10T23:48:53.439Z,99550.91
2018-07-10T23:51:23.175Z,99551.77
2018-07-10T23:53:54.051Z,99542.85
2018-07-10T23:56:24.088Z,99543.24
2018-07-10T23:58:54.149Z,99548.27
